Terminal Aerodrome Forecast
Issued by NWS

Home | Current Version | Previous Version | Graphics & Text | Print | Product List | Glossary On
Versions: 1 2 3 4 5 6 7 8 9 10 11 12 13 14 15 16
000
FTUS43 KUNR 280520
TAFGCC
TAF
KGCC 280520Z 2806/2906 VRB05KT P6SM -SHRA SCT040 OVC080
      TEMPO 2806/2808 5SM TSRA OVC040CB
     FM281600 34009KT P6SM -SHRA OVC040=

USA.gov is the U.S. government's official web portal to all federal, state and local government web resources and services.